Sanpo Maru No.5 — JL6343 — position and weather

sailwx.info

Track history (hours):
 
Tides and Currents Weather Stations Pressure Air Temp Water Temp Dewpoint Dewpoint Depression Visibility Wind Speed Wind Dir Waves Ship Positions

Sanpo Maru No.5

Last reported at 2017-Mar-24 05:18 UTC. Time now 2017-Mar-24 08:10 UTC.
Position N 35°35' E 139°51'.

Length 71 m; draft 4.5 m.

Type: Ship. MMSI: 431500283.

Date/timePositionNaut miles runAvg speedWind from/ knotsBaromVisibWave heightAir tempDewpointWater temp
2017-Mar-24 05:18N 35°35' E 139°51'5 6.4
2017-Mar-24 04:31N 35°30' E 139°50'10 9.9
2017-Mar-24 03:33N 35°24' E 139°42'2 2.0
2017-Mar-24 02:33N 35°24' E 139°40'0 0.0
2017-Mar-24 01:33N 35°24' E 139°40'0 0.0
2017-Mar-24 00:33N 35°24' E 139°40'0 0.4
2017-Mar-23 23:33N 35°24' E 139°39'3 3.0
2017-Mar-23 22:32N 35°21' E 139°40'0 0.0
2017-Mar-23 21:32N 35°21' E 139°40'0 0.0
2017-Mar-23 20:32N 35°21' E 139°40'0 0.0
2017-Mar-23 19:32N 35°21' E 139°40'0 0.0
2017-Mar-23 18:32N 35°21' E 139°40'0 0.0
2017-Mar-23 17:32N 35°21' E 139°40'0 0.0
2017-Mar-23 16:26N 35°21' E 139°40'0 0.1
2017-Mar-23 15:29N 35°21' E 139°40'0 0.0
2017-Mar-23 14:32N 35°21' E 139°40'0 0.0
2017-Mar-23 13:32N 35°21' E 139°40'0 0.1
2017-Mar-23 12:29N 35°21' E 139°40'0 0.0
2017-Mar-23 11:32N 35°21' E 139°40'0 0.0
2017-Mar-23 10:32N 35°21' E 139°40'0 0.1
2017-Mar-23 09:32N 35°21' E 139°40'0 0.0
2017-Mar-23 08:05N 35°21' E 139°40'0 0.0
2017-Mar-23 07:29N 35°21' E 139°40'0 0.0
2017-Mar-23 06:26N 35°21' E 139°40'0 0.0
2017-Mar-23 05:33N 35°21' E 139°40'7 7.1
2017-Mar-23 04:33N 35°27' E 139°46'1111.0
2017-Mar-23 03:33N 35°32' E 139°57'4 0.1
2017-Mar-21 09:22N 35°30' E 140°01'5 0.9
2017-Mar-21 04:17N 35°33' E 139°57'710.1
2017-Mar-21 03:33N 35°37' E 139°49'0 0.2
2017-Mar-21 01:20N 35°37' E 139°50'2 1.1
2017-Mar-20 23:21N 35°36' E 139°51'7 3.2
2017-Mar-20 21:09N 35°29' E 139°52'610.2
2017-Mar-20 20:33N 35°24' E 139°46'9 9.3
2017-Mar-20 19:33N 35°15' E 139°47'1010.2
2017-Mar-20 18:33N 35°05' E 139°46'10 9.7
2017-Mar-20 17:33N 34°55' E 139°45'  
2017-Mar-16 15:21N 34°51' E 139°38'  
Track history (hours):
 
Tides and Currents Weather Stations Pressure Air Temp Water Temp Dewpoint Dewpoint Depression Visibility Wind Speed Wind Dir Waves Ship Positions

Sanpo Maru No.5

Last reported at 2017-Mar-24 05:18 UTC. Time now 2017-Mar-24 08:10 UTC.
Position N 35°35' E 139°51'.

Length 71 m; draft 4.5 m.

Type: Ship. MMSI: 431500283.

Date/timePositionNaut miles runAvg speedWind from/ knotsBaromVisibWave heightAir tempDewpointWater temp
2017-Mar-24 05:18N 35°35' E 139°51'5 6.4
2017-Mar-24 04:31N 35°30' E 139°50'10 9.9
2017-Mar-24 03:33N 35°24' E 139°42'2 2.0
2017-Mar-24 02:33N 35°24' E 139°40'0 0.0
2017-Mar-24 01:33N 35°24' E 139°40'0 0.0
2017-Mar-24 00:33N 35°24' E 139°40'0 0.4
2017-Mar-23 23:33N 35°24' E 139°39'3 3.0
2017-Mar-23 22:32N 35°21' E 139°40'0 0.0
2017-Mar-23 21:32N 35°21' E 139°40'0 0.0
2017-Mar-23 20:32N 35°21' E 139°40'0 0.0
2017-Mar-23 19:32N 35°21' E 139°40'0 0.0
2017-Mar-23 18:32N 35°21' E 139°40'0 0.0
2017-Mar-23 17:32N 35°21' E 139°40'0 0.0
2017-Mar-23 16:26N 35°21' E 139°40'0 0.1
2017-Mar-23 15:29N 35°21' E 139°40'0 0.0
2017-Mar-23 14:32N 35°21' E 139°40'0 0.0
2017-Mar-23 13:32N 35°21' E 139°40'0 0.1
2017-Mar-23 12:29N 35°21' E 139°40'0 0.0
2017-Mar-23 11:32N 35°21' E 139°40'0 0.0
2017-Mar-23 10:32N 35°21' E 139°40'0 0.1
2017-Mar-23 09:32N 35°21' E 139°40'0 0.0
2017-Mar-23 08:05N 35°21' E 139°40'0 0.0
2017-Mar-23 07:29N 35°21' E 139°40'0 0.0
2017-Mar-23 06:26N 35°21' E 139°40'0 0.0
2017-Mar-23 05:33N 35°21' E 139°40'7 7.1
2017-Mar-23 04:33N 35°27' E 139°46'1111.0
2017-Mar-23 03:33N 35°32' E 139°57'4 0.1
2017-Mar-21 09:22N 35°30' E 140°01'5 0.9
2017-Mar-21 04:17N 35°33' E 139°57'710.1
2017-Mar-21 03:33N 35°37' E 139°49'0 0.2
2017-Mar-21 01:20N 35°37' E 139°50'2 1.1
2017-Mar-20 23:21N 35°36' E 139°51'7 3.2
2017-Mar-20 21:09N 35°29' E 139°52'610.2
2017-Mar-20 20:33N 35°24' E 139°46'9 9.3
2017-Mar-20 19:33N 35°15' E 139°47'1010.2
2017-Mar-20 18:33N 35°05' E 139°46'10 9.7
2017-Mar-20 17:33N 34°55' E 139°45'  
2017-Mar-16 15:21N 34°51' E 139°38'  

Dump ship's entire track history